Mitteilungen von N7QME - Kartenansicht · Info · Telemetrie · Wetter · Rohdaten · Status · Baken · Mitteilungen · Nachrichten · durchsuchen · bewegend · Mein Benutzerkonto
Rufzeichen:
Zeige:

Lade message Pakete...

APRS Mitteilungen werden für 14 Tage gespeichert. Es ist möglich bei der Suche einen Platzhalter (*?) nach dem Präfix zu verwenden.

2019-06-25 02:55:59 EDT: MTHOOD>N7QME: hum 54 15 64
2019-06-25 03:32:14 EDT: MTHOOD>N7QME: temps 57.1 95.4 52.6
2019-06-25 03:50:59 EDT: MTHOOD>N7QME: hum 54 12 66
2019-06-25 04:26:14 EDT: MTHOOD>N7QME: temps 57.0 95.2 52.1
2019-06-25 04:45:04 EDT: MTHOOD>N7QME: hum 54 13 67
2019-06-25 05:21:54 EDT: MTHOOD>N7QME: temps 56.9 95.0 51.4
2019-06-25 05:40:04 EDT: MTHOOD>N7QME: hum 54 14 68
2019-06-25 06:17:54 EDT: MTHOOD>N7QME: temps 56.7 94.8 50.7
2019-06-25 06:34:24 EDT: MTHOOD>N7QME: hum 54 10 67
2019-06-25 07:08:54 EDT: MTHOOD>N7QME: temps 56.5 94.6 50.0
2019-06-25 07:24:54 EDT: MTHOOD>N7QME: hum 53 10 68
2019-06-25 08:00:19 EDT: MTHOOD>N7QME: temps 56.4 94.7 49.5
2019-06-25 08:18:17 EDT: MTHOOD>N7QME: hum 53 11 69
2019-06-25 08:54:29 EDT: MTHOOD>N7QME: temps 56.2 95.2 49.2
2019-06-25 09:10:44 EDT: MTHOOD>N7QME: hum 53 12 70
2019-06-25 09:43:24 EDT: MTHOOD>N7QME: temps 56.0 95.1 49.0
2019-06-25 10:01:44 EDT: MTHOOD>N7QME: hum 53 14 74
2019-06-25 10:37:29 EDT: MTHOOD>N7QME: temps 55.8 95.2 49.2
2019-06-25 10:53:49 EDT: MTHOOD>N7QME: hum 54 15 76
2019-06-25 11:29:29 EDT: MTHOOD>N7QME: temps 55.7 95.4 49.7
2019-06-25 11:47:59 EDT: MTHOOD>N7QME: hum 54 12 76
2019-06-25 12:21:24 EDT: MTHOOD>N7QME: temps 55.6 95.6 50.4
2019-06-25 12:37:19 EDT: MTHOOD>N7QME: hum 54 11 76
2019-06-25 13:14:59 EDT: MTHOOD>N7QME: temps 55.6 95.8 51.2
2019-06-25 13:34:59 EDT: MTHOOD>N7QME: hum 53 12 75
2019-06-25 14:11:09 EDT: MTHOOD>N7QME: temps 55.7 96.0 52.2
2019-06-25 14:28:29 EDT: MTHOOD>N7QME: hum 54 10 75
2019-06-25 15:05:14 EDT: MTHOOD>N7QME: temps 55.8 96.2 53.2
2019-06-25 15:21:29 EDT: MTHOOD>N7QME: hum 54 10 74
2019-06-25 15:55:39 EDT: MTHOOD>N7QME: temps 55.8 96.2 53.7
2019-06-25 16:12:34 EDT: MTHOOD>N7QME: hum 54 12 74
2019-06-25 16:48:14 EDT: MTHOOD>N7QME: temps 55.9 96.2 55.2
2019-06-25 17:07:14 EDT: MTHOOD>N7QME: hum 54 13 72
2019-06-25 17:40:49 EDT: MTHOOD>N7QME: temps 56.0 96.3 56.0
2019-06-25 17:59:14 EDT: MTHOOD>N7QME: hum 54 14 74
2019-06-25 18:32:59 EDT: MTHOOD>N7QME: temps 56.2 96.2 56.5
2019-06-25 18:50:54 EDT: MTHOOD>N7QME: hum 54 15 74
2019-06-25 19:24:44 EDT: MTHOOD>N7QME: temps 56.4 96.2 57.6
2019-06-25 19:43:04 EDT: MTHOOD>N7QME: hum 55 10 73
2019-06-25 20:18:44 EDT: MTHOOD>N7QME: temps 56.5 96.2 57.5
2019-06-25 20:35:43 EDT: MTHOOD>N7QME: hum 55 11 71
2019-06-25 21:12:04 EDT: MTHOOD>N7QME: temps 56.7 96.1 57.0
2019-06-25 21:29:24 EDT: MTHOOD>N7QME: hum 55 12 71
2019-06-25 22:04:24 EDT: MTHOOD>N7QME: temps 56.8 96.0 56.8
2019-06-25 22:20:36 EDT: MTHOOD>N7QME: hum 55 14 70
2019-06-25 22:57:32 EDT: MTHOOD>N7QME: temps 56.9 95.8 56.5
2019-06-25 23:14:49 EDT: MTHOOD>N7QME: hum 55 15 71
2019-06-25 23:50:54 EDT: MTHOOD>N7QME: temps 57.1 96.5 56.1
2019-06-26 00:07:14 EDT: MTHOOD>N7QME: hum 55 12 71
2019-06-26 00:39:54 EDT: MTHOOD>N7QME: temps 57.2 96.4 55.7
< vorhergehender
FAQ · Blog · Diskussionsgruppe · Link zu aprs.fi · AIS-Sites · Status des Servers · Datenbank Statistiken · Werbe auf aprs.fi · Technische Details · API · Änderungen · geplante Änderungen · Dank an · Nutzungsbedingungen · iPhone/iPad APRS